Historyczne dane pomiarowe

Dodano dane terminowe – wersja testowa.

Dane z okresu 1951-2019

Wersja bazy: 1.34 [2019-03-16, lista zmian], aktualizacja planowana na 2019-04-15

Dane meteo z obszaru Polski uzyskane na podstawie danych udostępnionych przez Instytut Meteorologii i Gospodarki Wodnej – Państwowy Instytut Badawczy.

 

Wybierz Datę:    

       

TemperaturaWilgotnośćZachmurzenieWiatrCiśnienieWidzialnośćZjawiska
 Data    tng td wb rh cc ccl cl cm ch dir g1 g2 mslp ppp      
1994-06-19 00:00:00 12.3--- 11.4 11.894wxwxwx5wx--1007.2 994.2 2.4---wxw1
1994-06-19 01:00:00 12.2--- 11.5 11.895wxwxwx5wx--1007.0 994.0----wx
1994-06-19 02:00:00 12.5--- 11.4 11.993wxwxwx5wx--1007.1 994.1----wxw1
1994-06-19 03:00:00 12.1--- 11.0 11.593wxwxwx7wx--1007.2 994.2----wx
1994-06-19 04:00:00 11.9--- 10.6 11.292wxwxwxwx6wx--1007.6 994.6----wxw1
1994-06-19 05:00:00 11.9--- 10.8 11.393wxwxwxwx4wx--1007.8 994.8----wxw1
1994-06-19 06:00:00 12.1--- 10.7 11.391wxwxwxwx5wx--1008.1 995.1 0.2---wxw1
1994-06-19 07:00:00 12.2--- 10.8 11.491wxwxwxwx4wx--1008.1 995.1----wxw1
1994-06-19 08:00:00 12.0--- 10.6 11.291wxwxwxwx4wx--1008.1 995.1----wxw1
1994-06-19 09:00:00 13.2--- 11.8 12.491wxwxwxwx3wx--1007.8 994.8----wx
1994-06-19 10:00:00 16.2--- 12.3 13.978wxwxwxwx5wx--1007.0 994.2----wx
1994-06-19 11:00:00 16.2--- 12.7 14.180wxwxwx4wx--1006.8 994.0----wx
1994-06-19 12:00:00 16.6--- 12.5 14.277wxwxwx5wx--1006.7 993.9 0.6---wxw1
1994-06-19 13:00:00 17.0--- 12.8 14.576wxwxwx5wx--1006.9 994.1----wx
1994-06-19 14:00:00 17.6--- 12.7 14.773wxwxwx6wx12-1007.0 994.2----wx
1994-06-19 15:00:00 18.4--- 13.3 15.372wxwxwxwx5wx--1006.8 994.1----wx
1994-06-19 16:00:00 18.4--- 13.3 15.372wxwxwx4wx--1006.5 993.8----wx
1994-06-19 17:00:00 18.2--- 13.8 15.575wxwxwxwx4wx--1006.3 993.6----wx
1994-06-19 18:00:00 17.6--- 14.2 15.580wxwxwx4wx--1006.2 993.4 0.0---wx
1994-06-19 19:00:00 15.6--- 14.9 15.296wxwxwxwx3wx--1007.3 994.4----wx
1994-06-19 20:00:00 15.2--- 14.5 14.896wxwxwxwx2wx--1007.6 994.7----wx
1994-06-19 21:00:00 15.8--- 14.3 14.991wxwxwx5wx--1007.5 994.6----wxw1
1994-06-19 22:00:00 15.6--- 13.6 14.488wxwxwx4wx--1007.4 994.5----wx
1994-06-19 23:00:00 15.2--- 13.4 14.189wxwxwx6wx--1007.6 994.7----wx

 

Źródłem pochodzenia danych jest Instytut Meteorologii i Gospodarki Wodnej – Państwowy Instytut Badawczy. Dane Instytutu Meteorologii i Gospodarki Wodnej – Państwowego Instytutu Badawczego zostały przetworzone.

Dane źródłowe można odnaleźć na stronie https://dane.imgw.pl